Latest Weather Observations for Avalon

IDV60801

Issued at 7:35 am EDT Wednesday 26 November 2014 (issued every 30 minutes, with the page automatically refreshed every 10 minutes)

About weather observations | Map of weather stations | Latest weather observations for VIC | Other Formats
Station Details ID: 087113 Name: AVALON AIRPORT Lat: -38.03 Lon: 144.48 Height: 10.6 m
Data from the previous 72 hours. | See also: Recent months at Avalon
Date/Time
EDT
Temp
°C
App
Temp
°C
Dew
Point
Rel
Hum
%
Delta-T
°C
Wind Press
QNH
hPa
Press
MSL
hPa
Rain
since 9 am
mm
Dir
 
Spd
km/h
Gust
km/h
Spd
kts
Gust
kts
26/07:30am 11.4 9.8 8.1 80 1.6 NW 6 7 3 4 1021.2 1021.2 0.0
26/07:00am 10.5 8.7 8.1 85 1.2 WNW 7 9 4 5 1021.0 1021.0 0.0
26/06:30am 9.8 7.5 7.4 85 1.1 NW 9 13 5 7 1020.7 1020.7 0.0
26/06:00am 9.5 6.4 7.3 86 1.0 NW 13 15 7 8 1020.6 1020.6 0.0
26/05:30am 9.4 7.0 7.0 85 1.1 NW 9 13 5 7 1020.4 1020.4 0.0
26/05:00am 9.3 6.5 7.1 86 1.0 NW 11 13 6 7 1020.3 1020.3 0.0
26/04:30am 9.3 6.5 7.1 86 1.0 NW 11 13 6 7 1020.2 1020.2 0.0
26/04:00am 9.0 6.2 6.8 86 1.0 NW 11 13 6 7 1020.2 1020.2 0.0
26/03:30am 7.9 5.2 5.7 86 1.0 NNW 9 11 5 6 1020.2 1020.2 0.0
26/03:00am 8.1 5.5 6.2 88 0.9 N 9 11 5 6 1020.3 1020.3 0.0
26/02:30am 8.5 5.5 6.1 85 1.1 NNW 11 11 6 6 1020.5 1020.5 0.0
26/02:00am 9.6 6.8 6.9 83 1.3 NW 11 13 6 7 1020.6 1020.6 0.0
26/01:30am 8.6 6.0 6.1 84 1.1 NW 9 13 5 7 1020.8 1020.8 0.0
26/01:00am 10.1 6.9 7.0 81 1.5 NW 13 15 7 8 1021.1 1021.1 0.0
26/12:30am 9.3 6.4 6.6 83 1.3 NNW 11 13 6 7 1021.3 1021.3 0.0
26/12:00am 10.0 7.1 6.3 78 1.7 W 11 15 6 8 1021.3 1021.3 0.0
 
Date/Time
EDT
Temp
°C
App
Temp
°C
Dew
Point
Rel
Hum
%
Delta-T
°C
Wind Press
QNH
hPa
Press
MSL
hPa
Rain
since 9 am
mm
Dir
 
Spd
km/h
Gust
km/h
Spd
kts
Gust
kts
25/11:30pm 11.4 8.6 7.1 75 2.1 WNW 11 13 6 7 1021.6 1021.6 0.0
25/11:00pm 12.0 9.7 7.3 73 2.3 WNW 9 13 5 7 1021.8 1021.8 0.0
25/10:30pm 12.6 9.8 7.1 69 2.7 W 11 17 6 9 1021.7 1021.7 0.0
25/10:00pm 13.6 9.3 7.2 65 3.1 WSW 19 26 10 14 1021.6 1021.6 0.0
25/09:30pm 13.9 9.6 7.0 63 3.4 WSW 19 22 10 12 1021.3 1021.3 0.0
25/09:00pm 14.4 9.6 7.2 62 3.5 WSW 22 28 12 15 1021.1 1021.1 0.0
25/08:30pm 15.2 10.4 7.2 59 3.9 WSW 22 26 12 14 1020.7 1020.7 0.0
25/08:00pm 16.3 10.7 7.0 54 4.6 SW 26 35 14 19 1020.3 1020.3 0.0
25/07:30pm 17.4 11.8 7.2 51 5.1 WSW 26 33 14 18 1019.9 1019.9 0.0
25/07:00pm 18.7 13.0 6.9 46 5.9 W 26 35 14 19 1019.3 1019.3 0.0
25/06:30pm 19.3 12.5 7.1 45 6.2 WSW 32 41 17 22 1018.8 1018.8 0.0
25/06:00pm 19.3 13.2 6.4 43 6.4 W 28 43 15 23 1018.5 1018.5 0.0
25/05:30pm 19.2 13.0 6.3 43 6.4 WSW 28 39 15 21 1018.5 1018.5 0.0
25/05:00pm 20.2 13.6 6.2 40 7.0 WSW 30 43 16 23 1018.5 1018.5 0.0
25/04:30pm 19.6 13.2 5.3 39 7.0 W 28 37 15 20 1018.5 1018.5 0.0
25/04:09pm 21.3 15.1 6.0 37 7.7 WSW 28 46 15 25 1018.5 1018.5 0.0
25/04:00pm 19.8 12.4 5.1 38 7.2 WSW 33 46 18 25 1018.5 1018.5 0.0
25/03:30pm 19.6 12.2 4.9 38 7.1 W 33 46 18 25 1018.6 1018.6 0.0
25/03:04pm 20.2 13.8 5.4 38 7.3 WSW 28 46 15 25 1018.6 1018.6 0.0
25/03:00pm 19.8 12.6 5.1 38 7.2 W 32 46 17 25 1018.6 1018.6 0.0
25/02:30pm 20.2 12.7 6.5 41 6.9 W 35 44 19 24 1018.7 1018.7 0.0
25/02:00pm 18.9 11.8 5.7 42 6.5 W 32 44 17 24 1018.6 1018.6 0.0
25/01:43pm 19.4 12.2 5.8 41 6.7 W 33 54 18 29 1018.5 1018.5 0.0
25/01:30pm 20.0 12.6 4.9 37 7.3 W 33 46 18 25 1018.6 1018.6 0.0
25/01:16pm 19.8 11.7 7.2 44 6.4 W 39 46 21 25 1018.5 1018.5 0.0
25/01:07pm 19.1 10.7 5.6 41 6.6 WSW 39 46 21 25 1018.6 1018.6 0.0
25/01:00pm 20.8 13.1 5.2 36 7.7 W 35 46 19 25 1018.4 1018.4 0.0
25/12:30pm 18.6 12.1 6.4 45 6.1 W 30 41 16 22 1018.7 1018.7 0.0
25/12:00pm 18.6 12.0 7.7 49 5.5 W 32 43 17 23 1018.8 1018.8 0.0
25/11:30am 17.7 11.0 7.2 50 5.3 W 32 43 17 23 1018.9 1018.9 0.0
25/11:00am 17.4 10.1 7.2 51 5.1 W 35 50 19 27 1018.7 1018.7 0.0
25/10:30am 16.3 9.6 8.3 59 4.1 W 33 48 18 26 1018.9 1018.9 0.0
25/10:02am 16.4 10.5 8.9 61 3.9 W 30 48 16 26 1018.7 1018.7 0.0
25/10:00am 16.4 10.4 8.6 60 4.0 W 30 39 16 21 1018.7 1018.7 0.0
25/09:30am 15.4 9.7 8.4 63 3.5 W 28 41 15 22 1018.7 1018.7 0.0
25/09:00am 15.1 9.2 9.2 68 3.0 W 30 39 16 21 1018.3 1018.3 22.4
25/08:30am 14.5 8.7 9.3 71 2.7 WNW 30 41 16 22 1017.6 1017.6 22.4
25/08:00am 13.4 7.5 8.9 74 2.3 W 30 37 16 20 1017.2 1017.2 22.4
25/07:30am 12.5 7.2 8.6 77 1.9 WNW 26 37 14 20 1016.7 1016.7 22.4
25/07:00am 11.5 6.5 8.2 80 1.6 W 24 32 13 17 1016.3 1016.3 22.4
25/06:30am 10.8 5.8 7.9 82 1.4 W 24 32 13 17 1015.9 1015.9 22.4
25/06:00am 10.5 5.0 7.6 82 1.4 WNW 26 35 14 19 1015.5 1015.5 22.4
25/05:30am 10.5 5.0 7.4 81 1.5 WNW 26 33 14 18 1015.1 1015.1 22.4
25/05:00am 10.6 5.5 7.5 81 1.5 W 24 30 13 16 1014.9 1014.9 22.4
25/04:30am 10.7 5.2 7.4 80 1.6 WNW 26 33 14 18 1014.6 1014.6 22.4
25/04:00am 10.8 6.0 7.3 79 1.7 WNW 22 30 12 16 1014.6 1014.6 22.4
25/03:30am 10.3 5.5 7.2 81 1.5 WNW 22 30 12 16 1014.7 1014.7 22.4
25/03:00am 10.5 5.2 7.0 79 1.7 WNW 24 30 13 16 1014.6 1014.6 22.4
25/02:30am 11.1 4.4 7.4 78 1.8 WNW 32 37 17 20 1014.5 1014.5 22.4
25/02:00am 10.6 6.8 7.7 82 1.4 WNW 17 20 9 11 1014.5 1014.5 22.4
25/01:30am 10.4 7.4 7.8 84 1.3 WNW 13 17 7 9 1014.6 1014.6 22.4
25/01:00am 10.0 6.9 7.4 84 1.2 W 13 15 7 8 1014.5 1014.5 22.4
25/12:30am 10.7 7.4 7.9 83 1.4 W 15 20 8 11 1014.2 1014.2 22.4
25/12:00am 10.4 6.7 8.0 85 1.2 WNW 17 20 9 11 1014.1 1014.1 22.4
 
Date/Time
EDT
Temp
°C
App
Temp
°C
Dew
Point
Rel
Hum
%
Delta-T
°C
Wind Press
QNH
hPa
Press
MSL
hPa
Rain
since 9 am
mm
Dir
 
Spd
km/h
Gust
km/h
Spd
kts
Gust
kts
24/11:30pm 10.3 7.5 7.0 80 1.6 W 11 13 6 7 1013.8 1013.8 22.4
24/11:00pm 11.1 8.8 7.6 79 1.7 W 9 13 5 7 1013.8 1013.8 22.4
24/10:30pm 11.6 9.0 7.9 78 1.8 W 11 15 6 8 1013.8 1013.8 22.4
24/10:00pm 12.6 9.0 8.5 76 2.0 W 17 24 9 13 1013.4 1013.4 22.4
24/09:30pm 12.8 9.9 9.8 82 1.5 W 15 20 8 11 1013.1 1013.1 22.4
24/09:00pm 12.4 10.0 10.0 85 1.2 W 13 15 7 8 1012.5 1012.5 22.4
24/08:30pm 14.0 10.4 10.0 77 2.1 W 19 24 10 13 1011.9 1011.9 22.4
24/08:00pm 14.7 10.2 10.1 74 2.4 WSW 24 32 13 17 1011.4 1011.4 22.4
24/07:30pm 14.4 11.0 11.2 81 1.7 W 20 32 11 17 1010.7 1010.7 22.4
24/07:00pm 14.7 10.1 11.1 79 1.9 W 26 35 14 19 1010.7 1010.7 22.4
24/06:30pm 14.8 8.6 11.4 80 1.8 W 35 46 19 25 1009.8 1009.8 22.4
24/06:00pm 16.2 9.5 12.2 77 2.2 W 39 46 21 25 1008.4 1008.4 22.4
24/05:30pm 18.7 16.2 13.6 72 2.9 WSW 19 30 10 16 1007.0 1007.0 22.4
24/05:00pm 18.9 16.1 14.4 75 2.6 WSW 22 28 12 15 1006.9 1006.9 22.4
24/04:30pm 18.6 16.6 15.5 82 1.8 W 20 32 11 17 1006.9 1006.9 22.4
24/04:00pm 17.4 13.4 15.2 87 1.3 W 30 39 16 21 1006.8 1006.8 22.4
24/03:30pm 17.1 12.9 15.8 92 0.8 W 32 43 17 23 1006.7 1006.7 22.4
24/03:28pm 16.8 12.5 15.5 92 0.8 W 32 43 17 23 1006.7 1006.7 22.4
24/03:00pm 17.9 17.0 17.7 99 0.1 W 19 33 10 18 1006.6 1006.6 22.4
24/02:41pm 17.6 18.1 17.4 99 0.1 W 11 17 6 9 1006.5 1006.5 22.2
24/02:30pm 17.6 19.0 17.4 99 0.1 WNW 6 11 3 6 1006.7 1006.7 22.0
24/02:16pm 17.4 19.9 17.2 99 0.1 CALM 0 0 0 0 1006.6 1006.6 21.6
24/02:00pm 17.0 18.5 16.7 98 0.2 NW 4 7 2 4 1006.8 1006.8 20.8
24/01:45pm 17.1 18.1 16.8 98 0.2 W 7 13 4 7 1007.6 1007.6 15.8
24/01:30pm 17.1 17.6 16.6 97 0.3 W 9 13 5 7 1007.2 1007.2 13.6
24/01:05pm 17.1 17.3 16.8 98 0.2 NE 11 13 6 7 1007.0 1007.0 13.0
24/01:00pm 17.2 17.5 16.9 98 0.2 NE 11 15 6 8 1007.0 1007.0 13.0
24/12:53pm 17.4 17.4 17.1 98 0.2 NE 13 15 7 8 1007.3 1007.3 12.8
24/12:52pm 17.3 17.6 17.0 98 0.2 NE 11 15 6 8 1007.4 1007.4 12.8
24/12:31pm 17.1 16.2 16.8 98 0.2 ENE 17 20 9 11 1007.3 1007.3 12.0
24/12:30pm 17.1 15.8 16.8 98 0.2 ENE 19 20 10 11 1007.3 1007.3 12.0
24/12:05pm 16.7 17.5 16.4 98 0.2 SE 7 13 4 7 1008.6 1008.6 12.0
24/12:00pm 16.6 17.0 16.3 98 0.2 E 9 13 5 7 1008.1 1008.1 12.0
24/11:49am 16.5 14.9 15.9 96 0.4 ENE 19 26 10 14 1008.2 1008.2 11.4
24/11:30am 16.6 17.3 15.6 94 0.6 NNW 6 7 3 4 1010.3 1010.3 7.2
24/11:22am 16.6 16.4 15.8 95 0.5 NNE 11 17 6 9 1010.1 1010.1 5.8
24/11:06am 16.8 16.4 16.3 97 0.3 NE 13 17 7 9 1009.1 1009.1 5.0
24/11:00am 16.5 15.6 15.9 96 0.4 NE 15 17 8 9 1008.9 1008.9 5.0
24/10:52am 16.2 16.5 15.1 93 0.6 NNE 7 24 4 13 1008.3 1008.3 4.6
24/10:38am 16.4 16.7 14.9 91 0.9 NNW 7 13 4 7 1010.3 1010.3 3.0
24/10:30am 16.4 16.7 14.9 91 0.9 ENE 7 11 4 6 1009.3 1009.3 1.8
24/10:00am 16.4 17.5 14.6 89 1.0 N 2 9 1 5 1009.3 1009.3 0.8
24/09:30am 16.2 16.5 14.4 89 1.0 NW 6 7 3 4 1008.7 1008.7 0.2
24/09:00am 15.9 14.4 14.3 90 0.9 SSW 15 17 8 9 1009.2 1009.2 1.4
24/08:30am 15.3 14.0 13.8 91 0.8 SSW 13 17 7 9 1009.2 1009.2 1.2
24/08:00am 15.1 11.7 11.3 78 2.0 W 20 33 11 18 1010.3 1010.3 0.4
24/07:45am 15.7 11.0 10.5 71 2.7 WSW 26 33 14 18 1009.5 1009.5 0.0
24/07:30am 15.7 14.6 10.5 71 2.7 ENE 7 11 4 6 1007.2 1007.2 0.0
24/07:00am 14.5 13.6 10.5 77 2.1 ENE 6 7 3 4 1007.4 1007.4 0.0
24/06:30am 13.8 13.9 10.0 78 2.0 CALM 0 0 0 0 1007.5 1007.5 0.0
24/06:00am 13.4 12.3 9.8 79 1.9 E 6 9 3 5 1007.7 1007.7 0.0
24/05:30am 13.5 12.2 9.9 79 1.9 WNW 7 9 4 5 1008.4 1008.4 0.0
24/05:00am 12.3 10.5 9.3 82 1.5 NNW 9 11 5 6 1008.4 1008.4 0.0
24/04:30am 12.3 11.0 9.1 81 1.6 NW 6 9 3 5 1008.7 1008.7 0.0
24/04:00am 12.8 10.5 9.1 78 1.9 WSW 11 13 6 7 1009.0 1009.0 0.0
24/03:30am 12.3 12.0 8.8 79 1.7 CALM 0 0 0 0 1009.3 1009.3 0.0
24/03:00am 13.0 11.5 9.1 77 2.0 N 7 9 4 5 1010.1 1010.1 0.0
24/02:30am 12.9 11.3 8.8 76 2.1 NNW 7 9 4 5 1010.3 1010.3 0.0
24/02:00am 12.9 11.5 8.8 76 2.1 N 6 9 3 5 1010.8 1010.8 0.0
24/01:30am 14.2 12.8 8.8 70 2.7 N 6 7 3 4 1011.4 1011.4 0.0
24/01:00am 14.5 12.8 8.5 67 3.0 E 7 9 4 5 1011.7 1011.7 0.0
24/12:30am 15.5 13.6 9.2 66 3.2 ENE 9 11 5 6 1012.2 1012.2 0.0
24/12:00am 15.8 14.4 9.5 66 3.3 ENE 7 9 4 5 1012.7 1012.7 0.0
 
Date/Time
EDT
Temp
°C
App
Temp
°C
Dew
Point
Rel
Hum
%
Delta-T
°C
Wind Press
QNH
hPa
Press
MSL
hPa
Rain
since 9 am
mm
Dir
 
Spd
km/h
Gust
km/h
Spd
kts
Gust
kts
23/11:30pm 15.9 14.5 9.6 66 3.3 ENE 7 9 4 5 1013.3 1013.3 0.0
23/11:00pm 16.3 14.6 9.7 65 3.4 E 9 11 5 6 1013.5 1013.5 0.0
23/10:30pm 16.7 14.7 10.1 65 3.5 E 11 13 6 7 1013.7 1013.7 0.0
23/10:00pm 15.7 13.6 9.8 68 3.1 SE 11 13 6 7 1013.9 1013.9 0.0
23/09:30pm 16.3 14.1 9.5 64 3.5 ESE 11 13 6 7 1013.7 1013.7 0.0
23/09:00pm 16.2 13.4 8.7 61 3.8 ESE 13 15 7 8 1013.3 1013.3 0.0
23/08:30pm 16.4 13.7 9.1 62 3.8 SE 13 17 7 9 1013.4 1013.4 0.0
23/08:00pm 16.9 14.7 9.3 61 3.9 SSE 11 15 6 8 1013.5 1013.5 0.0
23/07:30pm 17.5 14.0 8.6 56 4.6 SSE 17 20 9 11 1013.2 1013.2 0.0
23/07:00pm 17.9 14.2 9.5 58 4.4 SSE 19 24 10 13 1013.2 1013.2 0.0
23/06:30pm 18.5 15.0 10.1 58 4.5 S 19 24 10 13 1012.9 1012.9 0.0
23/06:00pm 18.7 14.2 10.0 57 4.6 S 24 30 13 16 1012.8 1012.8 0.0
23/05:30pm 18.6 12.9 9.9 57 4.6 S 30 35 16 19 1012.8 1012.8 0.0
23/05:00pm 19.9 14.5 10.9 56 4.9 S 30 37 16 20 1012.3 1012.3 0.0
23/04:30pm 20.2 14.7 11.7 58 4.7 S 32 37 17 20 1011.9 1011.9 0.0
23/04:00pm 21.5 16.1 12.1 55 5.3 S 32 41 17 22 1011.5 1011.5 0.0
23/03:30pm 23.0 17.7 11.1 47 6.6 S 30 43 16 23 1011.4 1011.4 0.0
23/03:00pm 23.4 17.6 10.8 45 7.0 S 32 39 17 21 1011.3 1011.3 0.0
23/02:30pm 23.9 19.9 11.9 47 6.8 SE 24 30 13 16 1011.1 1011.1 0.0
23/02:00pm 23.4 19.4 10.5 44 7.1 ESE 22 28 12 15 1011.0 1011.0 0.0
23/01:30pm 22.9 18.5 10.3 45 6.9 ESE 24 30 13 16 1011.0 1011.0 0.0
23/01:00pm 22.6 18.6 11.7 50 6.1 ESE 24 32 13 17 1011.0 1011.0 0.0
23/12:30pm 22.3 19.0 12.8 55 5.4 ESE 22 28 12 15 1011.3 1011.3 0.0
23/12:00pm 22.2 18.8 11.3 50 6.1 ESE 20 26 11 14 1011.5 1011.5 0.0
23/11:30am 21.2 18.0 10.1 49 6.0 ESE 17 24 9 13 1012.0 1012.0 0.0
23/11:00am 21.6 20.0 11.6 53 5.6 E 11 17 6 9 1012.1 1012.1 0.0
23/10:30am 20.5 19.2 11.4 56 5.0 S 9 20 5 11 1012.4 1012.4 0.0
23/10:00am 19.5 17.4 11.3 59 4.5 S 13 19 7 10 1012.7 1012.7 0.0
23/09:30am 19.5 18.1 12.3 63 4.0 SSW 11 15 6 8 1012.9 1012.9 0.0
23/09:00am 18.4 17.1 12.6 69 3.2 SSW 11 17 6 9 1012.8 1012.8 0.0
23/08:30am 16.9 15.2 12.6 76 2.4 W 13 17 7 9 1012.7 1012.7 0.0
23/08:00am 16.5 14.2 13.0 80 1.9 WSW 17 20 9 11 1012.6 1012.6 0.0

Other Formats:

Comma delimited format used in spreadsheet applications
http://www.bom.gov.au/fwo/IDV60801/IDV60801.94854.axf

JavaScript Object Notation format (JSON) in row-major order
http://www.bom.gov.au/fwo/IDV60801/IDV60801.94854.json